Time;durP1;ratioP1;P1;durP2;ratioP2;P2;SDS_P1;SDS_P2;PMS_P1;PMS_P2;Temp;Humidity;BMP_temperature;BMP_pressure;BME280_temperature;BME280_humidity;BME280_pressure;Samples;Min_cycle;Max_cycle;Signal;HPM_P1;HPM_P2
2021/05/21 00:01:11;;;;;;;0.70;0.60;;;11.60;60.10;;;;;;5093589;28;20058;-77
2021/05/21 00:03:37;;;;;;;2.92;0.70;;;11.70;59.90;;;;;;5093555;28;20476;-77
2021/05/21 00:06:02;;;;;;;2.45;0.60;;;11.70;60.10;;;;;;5092260;28;20039;-77
2021/05/21 00:08:28;;;;;;;0.85;0.70;;;11.70;59.00;;;;;;5093470;28;20048;-77
2021/05/21 00:10:53;;;;;;;1.88;0.80;;;11.80;58.60;;;;;;5093491;28;20051;-77
2021/05/21 00:13:19;;;;;;;2.17;0.70;;;11.80;57.90;;;;;;5093313;28;20016;-77
2021/05/21 00:15:44;;;;;;;2.20;0.80;;;11.80;58.10;;;;;;5093382;28;20433;-77
2021/05/21 00:18:10;;;;;;;1.13;0.60;;;11.80;57.70;;;;;;5092824;28;20020;-77
2021/05/21 00:20:36;;;;;;;2.67;0.88;;;11.80;58.10;;;;;;5093225;28;20024;-77
2021/05/21 00:23:01;;;;;;;2.80;0.77;;;11.80;57.60;;;;;;5093259;28;20373;-79
2021/05/21 00:25:27;;;;;;;0.90;0.70;;;11.80;58.50;;;;;;5093264;28;20020;-78
2021/05/21 00:27:52;;;;;;;1.63;0.90;;;11.70;58.10;;;;;;5093318;28;20104;-77
2021/05/21 00:30:18;;;;;;;0.77;0.50;;;11.70;58.40;;;;;;5093252;28;20056;-77
2021/05/21 00:32:44;;;;;;;5.53;1.00;;;11.70;58.70;;;;;;5097893;28;20437;-78
2021/05/21 00:35:10;;;;;;;0.90;0.60;;;11.80;58.60;;;;;;5106884;28;20028;-77
2021/05/21 00:37:36;;;;;;;3.53;0.80;;;11.70;58.50;;;;;;5106095;28;20520;-77
2021/05/21 00:40:01;;;;;;;1.67;0.60;;;11.80;58.80;;;;;;5095012;28;20115;-77
2021/05/21 00:42:27;;;;;;;1.02;0.45;;;11.70;58.90;;;;;;5093527;28;20378;-77
2021/05/21 00:44:57;;;;;;;2.75;0.73;;;11.70;58.60;;;;;;5093044;28;20056;-77
2021/05/21 00:47:22;;;;;;;5.05;1.00;;;11.70;58.60;;;;;;5093113;28;20038;-77
2021/05/21 00:49:48;;;;;;;2.83;0.82;;;11.70;58.90;;;;;;5093230;28;20457;-77
2021/05/21 00:52:16;;;;;;;0.65;0.60;;;11.60;58.90;;;;;;5093238;28;20027;-77
2021/05/21 00:54:42;;;;;;;1.40;0.80;;;11.70;59.00;;;;;;5092928;28;20071;-77
2021/05/21 00:57:08;;;;;;;2.30;0.60;;;11.70;58.90;;;;;;5093047;28;20020;-77
2021/05/21 00:59:34;;;;;;;0.98;0.63;;;11.60;58.70;;;;;;5092917;28;20533;-77
2021/05/21 01:02:00;;;;;;;1.20;0.77;;;11.60;58.70;;;;;;5093022;28;20111;-77
2021/05/21 01:04:26;;;;;;;1.20;0.60;;;11.60;58.70;;;;;;5092909;28;20027;-78
2021/05/21 01:06:51;;;;;;;1.75;0.60;;;11.50;59.30;;;;;;5092832;28;20028;-77
2021/05/21 01:09:17;;;;;;;1.77;0.70;;;11.50;59.40;;;;;;5092833;28;20030;-77
2021/05/21 01:11:42;;;;;;;3.58;0.90;;;11.50;59.30;;;;;;5092832;28;20066;-77
2021/05/21 01:14:08;;;;;;;1.73;0.65;;;11.60;58.40;;;;;;5092686;28;20055;-78
2021/05/21 01:16:33;;;;;;;2.92;0.65;;;11.60;57.90;;;;;;5092698;28;20024;-75
2021/05/21 01:19:03;;;;;;;1.65;0.60;;;11.70;56.30;;;;;;5091389;28;20115;-78
2021/05/21 01:21:35;;;;;;;1.38;0.40;;;11.80;55.60;;;;;;5091605;28;20362;-78
2021/05/21 01:24:02;;;;;;;1.35;0.43;;;11.90;55.50;;;;;;5092880;28;20039;-76
2021/05/21 01:26:28;;;;;;;1.48;0.45;;;11.90;54.70;;;;;;5092580;28;20016;-78
2021/05/21 01:28:54;;;;;;;0.73;0.45;;;12.00;54.00;;;;;;5093545;28;20161;-78
2021/05/21 01:31:19;;;;;;;1.70;0.73;;;12.10;53.80;;;;;;5096586;28;20074;-78
2021/05/21 01:33:45;;;;;;;1.35;0.45;;;12.10;53.60;;;;;;5096424;28;20114;-78
2021/05/21 01:36:11;;;;;;;0.90;0.57;;;12.10;53.50;;;;;;5096480;28;20024;-78
2021/05/21 01:38:37;;;;;;;1.10;0.40;;;12.10;53.30;;;;;;5096568;28;20038;-78
2021/05/21 01:41:03;;;;;;;2.38;0.65;;;12.10;53.30;;;;;;5096185;28;20361;-79
2021/05/21 01:43:29;;;;;;;0.40;0.40;;;12.10;53.40;;;;;;5096350;28;20027;-79
2021/05/21 01:45:55;;;;;;;2.75;0.50;;;12.10;53.60;;;;;;5096087;28;20145;-79
2021/05/21 01:48:21;;;;;;;1.88;0.65;;;12.10;54.00;;;;;;5096211;28;20103;-79
2021/05/21 01:50:46;;;;;;;1.92;0.52;;;12.00;54.90;;;;;;5096270;28;20067;-79
2021/05/21 01:53:12;;;;;;;2.85;0.82;;;12.00;56.00;;;;;;5094887;28;20046;-79
2021/05/21 01:55:38;;;;;;;0.85;0.60;;;11.90;55.80;;;;;;5096167;28;20039;-79
2021/05/21 01:58:04;;;;;;;1.73;0.50;;;11.90;55.50;;;;;;5096018;28;20031;-79
2021/05/21 02:00:30;;;;;;;1.02;0.50;;;11.90;55.80;;;;;;5096120;28;20024;-79
2021/05/21 02:02:55;;;;;;;1.55;0.57;;;11.80;56.70;;;;;;5094809;28;20027;-79
2021/05/21 02:05:21;;;;;;;1.10;0.57;;;11.70;57.60;;;;;;5095990;28;20036;-79
2021/05/21 02:07:47;;;;;;;1.65;0.82;;;11.70;58.10;;;;;;5102865;28;20028;-78
2021/05/21 02:10:13;;;;;;;2.00;0.70;;;11.60;58.50;;;;;;5096178;28;20028;-79
2021/05/21 02:12:43;;;;;;;3.50;0.70;;;11.60;58.90;;;;;;5094548;28;20058;-79
2021/05/21 02:15:09;;;;;;;3.40;0.80;;;11.50;59.00;;;;;;5095738;28;20028;-79
2021/05/21 02:17:36;;;;;;;1.02;0.70;;;11.50;59.20;;;;;;5095740;28;20536;-78
2021/05/21 02:20:05;;;;;;;2.20;0.70;;;11.50;59.50;;;;;;5095817;28;20034;-79
2021/05/21 02:22:37;;;;;;;2.17;0.80;;;11.50;57.90;;;;;;5095601;28;20019;-79
2021/05/21 02:25:03;;;;;;;2.70;0.73;;;11.50;58.50;;;;;;5095601;28;20020;-79
2021/05/21 02:27:28;;;;;;;2.70;1.23;;;11.40;59.10;;;;;;5095308;28;20027;-79
2021/05/21 02:29:54;;;;;;;1.45;0.98;;;11.50;59.60;;;;;;5094155;28;20024;-79
2021/05/21 02:32:20;;;;;;;3.05;0.90;;;11.40;59.80;;;;;;5095445;28;20024;-78
2021/05/21 02:34:46;;;;;;;1.60;0.63;;;11.40;60.00;;;;;;5095342;28;20028;-78
2021/05/21 02:37:12;;;;;;;1.27;0.85;;;11.40;60.20;;;;;;5095513;28;20020;-78
2021/05/21 02:39:38;;;;;;;1.73;0.70;;;11.30;60.30;;;;;;5094927;28;20021;-77
2021/05/21 02:42:04;;;;;;;1.00;0.57;;;11.30;60.50;;;;;;5095304;28;20144;-77
2021/05/21 02:44:30;;;;;;;1.65;0.60;;;11.20;60.70;;;;;;5094965;28;20440;-78
2021/05/21 02:46:56;;;;;;;2.70;0.70;;;11.30;61.10;;;;;;5095129;28;20056;-77
2021/05/21 02:49:21;;;;;;;2.28;0.70;;;11.30;61.00;;;;;;5095077;28;20036;-77
2021/05/21 02:51:52;;;;;;;2.92;0.60;;;11.30;61.00;;;;;;5095036;28;20051;-79
2021/05/21 02:54:18;;;;;;;2.13;0.82;;;11.20;61.10;;;;;;5095005;28;20043;-78
2021/05/21 02:56:44;;;;;;;1.30;0.45;;;11.20;61.10;;;;;;5095025;28;20028;-79
2021/05/21 02:59:10;;;;;;;1.80;0.65;;;11.20;61.10;;;;;;5094873;28;20066;-79
2021/05/21 03:01:35;;;;;;;6.00;0.63;;;11.20;61.20;;;;;;5094861;28;20031;-79
2021/05/21 03:04:01;;;;;;;1.98;0.50;;;11.20;61.30;;;;;;5094969;28;20479;-79
2021/05/21 03:06:27;;;;;;;0.82;0.45;;;11.20;61.20;;;;;;5093466;28;20443;-78
2021/05/21 03:08:52;;;;;;;1.65;0.70;;;11.20;61.30;;;;;;5094829;28;20059;-78
2021/05/21 03:11:18;;;;;;;1.15;0.57;;;11.10;61.30;;;;;;5094674;28;20020;-77
2021/05/21 03:13:44;;;;;;;0.85;0.50;;;11.10;61.40;;;;;;5094640;28;20020;-77
2021/05/21 03:16:10;;;;;;;2.25;0.77;;;11.10;61.30;;;;;;5094665;28;20020;-78
2021/05/21 03:18:36;;;;;;;1.05;0.73;;;11.10;61.60;;;;;;5094608;28;20023;-77
2021/05/21 03:21:01;;;;;;;1.67;0.47;;;11.10;61.60;;;;;;5094600;28;20481;-78
2021/05/21 03:23:27;;;;;;;2.92;0.80;;;11.10;62.00;;;;;;5094479;28;20495;-79
2021/05/21 03:25:53;;;;;;;0.93;0.60;;;11.10;62.00;;;;;;5094421;28;20024;-79
2021/05/21 03:28:18;;;;;;;2.72;1.05;;;11.20;61.80;;;;;;5094310;28;20544;-78
2021/05/21 03:30:44;;;;;;;3.88;1.15;;;11.10;60.40;;;;;;5094303;28;20020;-77
2021/05/21 03:33:10;;;;;;;1.98;0.90;;;11.20;61.00;;;;;;5094334;28;20099;-79
2021/05/21 03:35:36;;;;;;;2.72;0.70;;;11.10;61.10;;;;;;5094198;28;20071;-79
2021/05/21 03:38:03;;;;;;;3.10;0.90;;;11.10;61.60;;;;;;5094388;28;20091;-79
2021/05/21 03:40:30;;;;;;;1.13;0.68;;;11.20;60.60;;;;;;5094227;28;20020;-77
2021/05/21 03:42:56;;;;;;;1.90;0.60;;;11.20;60.50;;;;;;5094212;28;20461;-77
2021/05/21 03:45:22;;;;;;;5.43;0.70;;;11.10;60.50;;;;;;5093873;28;20051;-77
2021/05/21 03:47:47;;;;;;;2.65;0.80;;;11.10;60.20;;;;;;5093920;28;20024;-77
2021/05/21 03:50:14;;;;;;;0.63;0.63;;;11.10;60.40;;;;;;5094015;28;20064;-78
2021/05/21 03:52:40;;;;;;;3.35;0.50;;;11.10;60.40;;;;;;5093302;28;20024;-78
2021/05/21 03:55:07;;;;;;;1.50;0.50;;;11.10;60.10;;;;;;5093780;28;20032;-78
2021/05/21 03:57:33;;;;;;;2.85;0.88;;;11.20;59.60;;;;;;5093732;28;20055;-78
2021/05/21 03:59:59;;;;;;;3.22;1.00;;;11.30;59.30;;;;;;5093762;28;20020;-77
2021/05/21 04:02:25;;;;;;;3.28;1.02;;;11.30;59.50;;;;;;5093659;28;20103;-76
2021/05/21 04:04:51;;;;;;;1.27;1.00;;;11.30;59.60;;;;;;5093826;28;20354;-77
2021/05/21 04:07:18;;;;;;;2.15;0.70;;;11.30;58.80;;;;;;5093494;28;20016;-77
2021/05/21 04:09:43;;;;;;;1.20;0.60;;;11.30;58.90;;;;;;5093682;28;20024;-77
2021/05/21 04:12:09;;;;;;;1.30;0.57;;;11.40;57.90;;;;;;5093646;28;20042;-77
2021/05/21 04:14:36;;;;;;;1.33;0.50;;;11.50;57.40;;;;;;5093576;28;20040;-75
2021/05/21 04:17:01;;;;;;;2.35;0.73;;;11.50;57.30;;;;;;5093551;28;20020;-76
2021/05/21 04:19:27;;;;;;;2.08;0.60;;;11.60;57.10;;;;;;5093258;28;20024;-79
2021/05/21 04:21:52;;;;;;;2.33;0.77;;;11.60;56.90;;;;;;5093432;28;20066;-80
2021/05/21 04:24:18;;;;;;;2.15;0.98;;;11.60;56.90;;;;;;5092157;28;20534;-80
2021/05/21 04:26:43;;;;;;;1.98;0.73;;;11.70;56.90;;;;;;5093427;28;20031;-81
2021/05/21 04:29:09;;;;;;;1.70;0.85;;;11.80;56.50;;;;;;5093452;28;20016;-79
2021/05/21 04:31:34;;;;;;;2.72;0.60;;;11.80;56.50;;;;;;5093260;28;20032;-80
2021/05/21 04:34:00;;;;;;;0.52;0.50;;;11.80;56.60;;;;;;5091947;28;20073;-78
2021/05/21 04:36:26;;;;;;;1.33;0.68;;;11.80;56.60;;;;;;5093288;28;20028;-80
2021/05/21 04:38:51;;;;;;;4.72;0.90;;;11.80;57.00;;;;;;5093387;28;20047;-79
2021/05/21 04:41:17;;;;;;;4.07;0.90;;;11.80;57.80;;;;;;5093122;28;20039;-79
2021/05/21 04:43:44;;;;;;;1.55;0.70;;;11.70;58.40;;;;;;5093337;28;20017;-80
2021/05/21 04:46:10;;;;;;;1.67;0.90;;;11.70;58.70;;;;;;5095851;28;20123;-79
2021/05/21 04:48:35;;;;;;;4.22;1.15;;;11.70;59.00;;;;;;5097712;28;20051;-78
2021/05/21 04:51:01;;;;;;;3.10;0.93;;;11.60;59.30;;;;;;5096513;28;20368;-77
2021/05/21 04:53:27;;;;;;;2.58;0.93;;;11.50;59.70;;;;;;5095718;28;20111;-77
2021/05/21 04:55:52;;;;;;;1.75;0.70;;;11.50;59.70;;;;;;5097740;28;20032;-78
2021/05/21 04:58:18;;;;;;;0.90;0.75;;;11.50;59.90;;;;;;5094622;28;20055;-80
2021/05/21 05:00:44;;;;;;;1.42;0.82;;;11.50;60.00;;;;;;5093124;28;20024;-77
2021/05/21 05:03:17;;;;;;;4.63;0.80;;;11.60;59.70;;;;;;5094551;28;20017;-79
2021/05/21 05:05:46;;;;;;;2.33;1.00;;;11.70;59.80;;;;;;5097335;28;20077;-79
2021/05/21 05:08:16;;;;;;;3.90;1.10;;;11.70;59.20;;;;;;5097369;28;20032;-77
2021/05/21 05:10:46;;;;;;;3.83;0.63;;;11.80;58.80;;;;;;5097113;28;20538;-76
2021/05/21 05:13:12;;;;;;;2.97;0.80;;;11.90;58.60;;;;;;5095735;28;20492;-78
2021/05/21 05:15:38;;;;;;;1.55;1.02;;;12.00;58.40;;;;;;5095724;28;20036;-78
2021/05/21 05:18:05;;;;;;;0.95;0.63;;;12.00;58.20;;;;;;5096382;28;20016;-78
2021/05/21 05:20:30;;;;;;;1.98;0.52;;;12.00;58.30;;;;;;5095197;28;20039;-76
2021/05/21 05:22:57;;;;;;;1.00;0.70;;;12.00;58.40;;;;;;5095484;28;20042;-77
2021/05/21 05:25:23;;;;;;;2.20;0.70;;;12.00;58.50;;;;;;5095861;28;20469;-77
2021/05/21 05:27:52;;;;;;;2.10;0.98;;;12.10;58.20;;;;;;5095180;28;20031;-78
2021/05/21 05:30:19;;;;;;;1.50;0.60;;;12.10;57.90;;;;;;5096469;28;20129;-76
2021/05/21 05:32:45;;;;;;;0.70;0.50;;;12.10;58.10;;;;;;5096629;28;20065;-79
2021/05/21 05:35:11;;;;;;;1.15;0.60;;;12.20;57.90;;;;;;5096433;28;20028;-77
2021/05/21 05:37:37;;;;;;;3.35;0.70;;;12.20;57.70;;;;;;5096428;28;20491;-78
2021/05/21 05:40:04;;;;;;;1.05;0.70;;;12.30;57.80;;;;;;5096577;28;20121;-78
2021/05/21 05:42:29;;;;;;;3.42;0.70;;;12.30;57.60;;;;;;5096143;28;20017;-79
2021/05/21 05:44:55;;;;;;;1.33;0.68;;;12.40;57.30;;;;;;5096490;28;20048;-77
2021/05/21 05:47:20;;;;;;;4.97;0.90;;;12.50;57.30;;;;;;5097612;28;20077;-79
2021/05/21 05:49:46;;;;;;;3.40;0.90;;;12.60;56.80;;;;;;5096238;28;20024;-77
2021/05/21 05:52:11;;;;;;;1.52;0.52;;;12.60;56.90;;;;;;5096501;28;20028;-79
2021/05/21 05:54:37;;;;;;;1.77;0.70;;;12.70;56.90;;;;;;5095973;28;20032;-79
2021/05/21 05:57:03;;;;;;;2.65;1.10;;;12.70;56.60;;;;;;5094527;28;20031;-78
2021/05/21 05:59:30;;;;;;;2.70;0.80;;;12.70;56.60;;;;;;5096387;28;20519;-78
2021/05/21 06:01:55;;;;;;;3.00;0.73;;;12.80;56.10;;;;;;5094732;28;20024;-77
2021/05/21 06:04:21;;;;;;;2.28;0.60;;;12.80;56.20;;;;;;5096020;28;20020;-77
2021/05/21 06:06:47;;;;;;;2.38;0.73;;;12.80;56.60;;;;;;5094383;28;20028;-76
2021/05/21 06:09:13;;;;;;;0.55;0.50;;;12.90;56.90;;;;;;5095763;28;20090;-78
2021/05/21 06:11:39;;;;;;;1.55;0.57;;;12.90;56.20;;;;;;5095900;28;20024;-78
2021/05/21 06:14:05;;;;;;;1.70;0.82;;;12.90;55.90;;;;;;5100567;28;20024;-78
2021/05/21 06:16:30;;;;;;;6.80;0.60;;;13.00;56.20;;;;;;5107912;28;20024;-76
2021/05/21 06:18:56;;;;;;;0.95;0.60;;;13.00;55.90;;;;;;5095842;28;20020;-77
2021/05/21 06:21:22;;;;;;;4.57;0.90;;;13.10;55.80;;;;;;5095518;28;20053;-78
2021/05/21 06:23:47;;;;;;;3.35;0.90;;;13.10;56.20;;;;;;5095620;28;20028;-76
2021/05/21 06:26:32;;;;;;;0.80;0.50;;;13.20;55.90;;;;;;5094199;28;20032;-77
2021/05/21 06:28:58;;;;;;;1.98;0.50;;;13.40;53.90;;;;;;5095777;28;20020;-76
2021/05/21 06:31:23;;;;;;;1.67;0.70;;;13.40;54.40;;;;;;5095622;28;20082;-78
2021/05/21 06:33:50;;;;;;;2.35;0.50;;;13.40;54.50;;;;;;5095494;28;20070;-75
2021/05/21 06:36:15;;;;;;;1.85;0.90;;;13.40;52.50;;;;;;5095208;28;20031;-77
2021/05/21 06:38:43;;;;;;;1.40;0.63;;;13.60;53.60;;;;;;5095440;28;20032;-76
2021/05/21 06:41:09;;;;;;;2.95;0.60;;;13.70;52.80;;;;;;5095453;28;20032;-76
2021/05/21 06:43:35;;;;;;;2.22;0.60;;;13.80;52.00;;;;;;5093935;28;20031;-75
2021/05/21 06:46:02;;;;;;;5.22;1.17;;;14.00;51.90;;;;;;5094897;28;20055;-73
2021/05/21 06:48:32;;;;;;;2.83;0.90;;;14.10;53.20;;;;;;5094056;28;20085;-73
2021/05/21 06:51:00;;;;;;;5.88;0.60;;;14.40;49.90;;;;;;5095206;28;20066;-73
2021/05/21 06:53:26;;;;;;;5.95;0.85;;;14.50;48.00;;;;;;5096043;28;20495;-75
2021/05/21 06:55:52;;;;;;;2.53;0.77;;;14.70;46.70;;;;;;5096621;28;20548;-80
2021/05/21 06:58:19;;;;;;;4.18;0.57;;;14.90;46.60;;;;;;5095823;28;20027;-73
2021/05/21 07:00:48;;;;;;;3.33;0.63;;;15.10;46.30;;;;;;5095045;28;20595;-73
2021/05/21 07:03:14;;;;;;;1.48;0.63;;;15.10;45.00;;;;;;5095016;28;20111;-73
2021/05/21 07:05:41;;;;;;;1.65;0.50;;;15.20;44.30;;;;;;5095283;28;20016;-81
2021/05/21 07:08:07;;;;;;;2.55;0.77;;;15.30;44.90;;;;;;5095188;28;20103;-73
2021/05/21 07:10:33;;;;;;;1.27;0.50;;;15.40;45.60;;;;;;5095366;28;20170;-81
2021/05/21 07:13:11;;;;;;;1.98;0.47;;;15.40;44.80;;;;;;5095111;28;20570;-71
2021/05/21 07:15:38;;;;;;;1.15;0.70;;;15.50;44.00;;;;;;5093624;28;20032;-77
2021/05/21 07:18:05;;;;;;;1.60;0.60;;;15.40;43.40;;;;;;5095004;28;20062;-78
2021/05/21 07:20:31;;;;;;;2.08;0.25;;;15.30;43.60;;;;;;5093628;28;20028;-82
2021/05/21 07:22:57;;;;;;;0.82;0.57;;;15.20;43.80;;;;;;5094746;28;20027;-81
2021/05/21 07:25:23;;;;;;;7.40;0.80;;;15.30;43.80;;;;;;5094709;28;20107;-73
2021/05/21 07:27:49;;;;;;;2.60;0.60;;;15.30;43.80;;;;;;5093496;28;20028;-81
2021/05/21 07:30:15;;;;;;;5.07;1.00;;;15.30;44.00;;;;;;5094391;28;20095;-81
2021/05/21 07:32:41;;;;;;;1.02;0.43;;;15.30;43.80;;;;;;5094165;28;20472;-83
2021/05/21 07:35:08;;;;;;;1.13;0.47;;;15.30;44.00;;;;;;5094546;28;20043;-80
2021/05/21 07:37:34;;;;;;;5.63;0.63;;;15.20;43.80;;;;;;5093690;28;20510;-80
2021/05/21 07:40:00;;;;;;;7.63;0.57;;;15.20;44.00;;;;;;5094312;28;20031;-81
2021/05/21 07:42:28;;;;;;;1.27;0.30;;;15.20;44.00;;;;;;5094396;28;20384;-84
2021/05/21 07:44:54;;;;;;;2.42;0.60;;;15.10;44.60;;;;;;5093974;28;20508;-85
2021/05/21 07:47:20;;;;;;;1.85;0.60;;;15.00;44.60;;;;;;5094490;28;20035;-81
2021/05/21 07:49:46;;;;;;;1.45;0.45;;;15.00;45.00;;;;;;5093905;28;20020;-85
2021/05/21 07:52:11;;;;;;;1.85;0.57;;;15.00;45.40;;;;;;5092732;28;20036;-79
2021/05/21 07:54:37;;;;;;;1.67;0.57;;;15.10;45.60;;;;;;5093479;28;20043;-84
2021/05/21 07:57:03;;;;;;;2.25;0.60;;;15.10;45.20;;;;;;5093971;28;20036;-81
2021/05/21 07:59:28;;;;;;;2.00;0.52;;;15.10;45.70;;;;;;5094054;28;20106;-84
2021/05/21 08:01:54;;;;;;;2.47;0.80;;;15.10;45.80;;;;;;5093863;28;20020;-82
2021/05/21 08:04:20;;;;;;;1.75;0.50;;;14.90;46.10;;;;;;5093653;28;20024;-81
2021/05/21 08:06:45;;;;;;;2.63;0.82;;;14.90;46.30;;;;;;5093674;28;20041;-81
2021/05/21 08:09:11;;;;;;;1.05;0.52;;;14.80;46.50;;;;;;5093768;28;20388;-82
2021/05/21 08:11:37;;;;;;;1.25;0.70;;;14.80;47.10;;;;;;5093670;28;20020;-81
2021/05/21 08:14:03;;;;;;;1.23;0.57;;;14.70;48.30;;;;;;5093351;28;20024;-83
2021/05/21 08:16:29;;;;;;;1.30;0.55;;;14.50;48.40;;;;;;5092329;28;20028;-80
2021/05/21 08:18:57;;;;;;;1.90;0.60;;;14.40;49.00;;;;;;5093835;28;20107;-81
2021/05/21 08:21:27;;;;;;;3.83;0.50;;;14.40;49.20;;;;;;5093281;28;20036;-80
2021/05/21 08:23:53;;;;;;;1.88;0.68;;;14.40;49.80;;;;;;5091240;28;20027;-81
2021/05/21 08:26:22;;;;;;;2.47;0.60;;;14.40;50.10;;;;;;5092934;28;20059;-81
2021/05/21 08:28:48;;;;;;;2.45;0.80;;;14.30;50.90;;;;;;5092783;28;20193;-80
2021/05/21 08:31:14;;;;;;;3.00;0.70;;;14.20;52.00;;;;;;5093086;28;20147;-81
2021/05/21 08:33:43;;;;;;;3.60;0.77;;;14.20;52.30;;;;;;5092719;28;20020;-81
2021/05/21 08:36:13;;;;;;;3.58;0.60;;;14.10;52.30;;;;;;5093130;28;20480;-81
2021/05/21 08:38:41;;;;;;;4.20;0.75;;;14.10;52.50;;;;;;5092706;28;20051;-81
2021/05/21 08:41:14;;;;;;;0.93;0.38;;;14.00;53.00;;;;;;5092945;28;20132;-81
2021/05/21 08:43:45;;;;;;;2.40;0.88;;;13.90;55.30;;;;;;5091533;28;20357;-81
2021/05/21 08:46:10;;;;;;;0.93;0.55;;;13.90;56.80;;;;;;5093257;28;20040;-86
2021/05/21 08:48:36;;;;;;;0.70;0.60;;;13.80;57.80;;;;;;5092878;28;20028;-81
2021/05/21 08:51:02;;;;;;;2.92;0.60;;;13.80;58.30;;;;;;5093078;28;20028;-81
2021/05/21 08:53:28;;;;;;;3.13;0.63;;;13.70;59.30;;;;;;5093160;28;20406;-81
2021/05/21 08:55:54;;;;;;;4.38;0.73;;;13.70;61.40;;;;;;5092863;28;20118;-83
2021/05/21 08:58:19;;;;;;;4.85;0.70;;;13.60;62.10;;;;;;5092161;28;20107;-85
2021/05/21 09:00:45;;;;;;;2.92;0.85;;;13.40;65.10;;;;;;5092139;28;20052;-84
2021/05/21 09:03:23;;;;;;;6.10;0.80;;;13.30;67.70;;;;;;5094511;28;20024;-83
2021/05/21 09:06:23;;;;;;;3.17;1.20;;;13.20;66.60;;;;;;5103362;28;20016;-82
2021/05/21 09:08:51;;;;;;;1.67;0.63;;;13.10;65.60;;;;;;5093248;28;20016;-81
2021/05/21 09:11:29;;;;;;;1.17;0.73;;;13.10;67.60;;;;;;5091129;28;20078;-80
2021/05/21 09:13:59;;;;;;;3.38;1.05;;;13.10;70.30;;;;;;5092843;28;20012;-81
2021/05/21 09:16:29;;;;;;;4.32;0.80;;;12.90;70.90;;;;;;5092938;28;20468;-80
2021/05/21 09:19:15;;;;;;;1.20;0.70;;;12.80;69.80;;;;;;5092869;28;20024;-80
2021/05/21 09:22:00;;;;;;;3.55;0.85;;;12.80;70.40;;;;;;5093447;28;20563;-80
2021/05/21 09:24:35;;;;;;;4.18;0.90;;;12.80;71.10;;;;;;5092695;28;20154;-84
2021/05/21 09:27:02;;;;;;;1.38;0.60;;;12.80;71.40;;;;;;5094232;28;20401;-86
2021/05/21 09:29:41;;;;;;;1.38;0.70;;;12.70;70.60;;;;;;5092150;28;20028;-83
2021/05/21 09:32:19;;;;;;;0.80;0.47;;;12.60;71.20;;;;;;5092359;28;20499;-80
2021/05/21 09:34:48;;;;;;;1.13;0.88;;;12.60;71.30;;;;;;5093235;28;20119;-85
2021/05/21 09:37:25;;;;;;;2.35;0.57;;;12.50;72.30;;;;;;5099268;28;20043;-81
2021/05/21 09:40:07;;;;;;;2.05;0.65;;;12.50;73.10;;;;;;5096684;28;20028;-80
2021/05/21 09:43:00;;;;;;;0.95;0.70;;;12.40;72.60;;;;;;5092533;28;20105;-79
2021/05/21 09:45:30;;;;;;;1.42;0.52;;;12.30;73.00;;;;;;5092469;28;20464;-80
2021/05/21 09:48:04;;;;;;;2.25;0.85;;;12.30;71.90;;;;;;5091199;28;20129;-79
2021/05/21 09:50:41;;;;;;;2.78;0.85;;;12.10;71.40;;;;;;5094702;28;20024;-81
2021/05/21 09:53:10;;;;;;;1.38;0.98;;;12.10;72.50;;;;;;5096505;28;20361;-83
2021/05/21 09:55:42;;;;;;;0.60;0.60;;;12.10;72.30;;;;;;5096308;28;20028;-80
2021/05/21 09:58:08;;;;;;;0.30;0.25;;;12.10;71.90;;;;;;5096125;28;20086;-79
2021/05/21 10:00:35;;;;;;;0.93;0.40;;;12.10;71.70;;;;;;5095810;28;20077;-79
2021/05/21 10:03:01;;;;;;;1.52;0.50;;;12.00;71.00;;;;;;5094153;28;20024;-79
2021/05/21 10:05:27;;;;;;;0.55;0.30;;;12.00;72.50;;;;;;5094215;28;20496;-80
2021/05/21 10:07:53;;;;;;;1.40;0.40;;;12.00;71.20;;;;;;5094811;28;20104;-80
2021/05/21 10:10:23;;;;;;;1.58;0.50;;;12.00;71.70;;;;;;5095920;28;20429;-80
2021/05/21 10:12:49;;;;;;;0.80;0.50;;;12.00;71.60;;;;;;5096433;28;20031;-80
2021/05/21 10:15:15;;;;;;;0.63;0.50;;;11.80;73.10;;;;;;5096007;28;20542;-82
2021/05/21 10:17:43;;;;;;;1.58;0.30;;;11.80;72.70;;;;;;5094539;28;20025;-80
2021/05/21 10:20:12;;;;;;;4.97;1.27;;;11.80;74.50;;;;;;5096425;28;20024;-89
2021/05/21 10:22:40;;;;;;;4.82;0.73;;;11.60;75.10;;;;;;5095854;28;20600;-80
2021/05/21 10:25:24;;;;;;;3.08;0.57;;;11.40;76.40;;;;;;5095744;28;20117;-81
2021/05/21 10:27:56;;;;;;;1.95;0.60;;;11.50;77.40;;;;;;5095859;28;20020;-80
2021/05/21 10:30:27;;;;;;;1.35;0.63;;;11.30;77.90;;;;;;5094315;28;20125;-81
2021/05/21 10:33:16;;;;;;;1.95;0.80;;;11.30;79.20;;;;;;5095489;28;20031;-79
2021/05/21 10:35:41;;;;;;;0.73;0.60;;;11.30;79.10;;;;;;5102363;28;20027;-80
2021/05/21 10:38:23;;;;;;;1.42;0.65;;;11.20;77.70;;;;;;5095854;28;20426;-80
2021/05/21 10:41:15;;;;;;;1.05;0.80;;;11.20;79.20;;;;;;5094830;28;20032;-82
2021/05/21 10:43:52;;;;;;;1.02;0.75;;;11.20;79.60;;;;;;5099449;28;20074;-81
2021/05/21 10:46:19;;;;;;;4.25;0.70;;;11.30;79.70;;;;;;5095437;28;20101;-83
2021/05/21 10:48:53;;;;;;;1.65;0.73;;;11.30;79.20;;;;;;5098720;28;20020;-84
2021/05/21 10:51:19;;;;;;;0.55;0.43;;;11.40;78.40;;;;;;5102339;28;20433;-81
2021/05/21 10:53:46;;;;;;;1.25;0.73;;;11.50;78.60;;;;;;5102614;28;20028;-82
2021/05/21 10:56:14;;;;;;;0.75;0.68;;;11.50;78.70;;;;;;5104236;28;20421;-84
2021/05/21 10:58:44;;;;;;;0.25;0.22;;;11.60;77.30;;;;;;5097880;28;20440;-83
2021/05/21 11:01:12;;;;;;;0.88;0.52;;;11.60;75.50;;;;;;5093738;28;20108;-83
2021/05/21 11:03:56;;;;;;;0.85;0.30;;;11.70;72.60;;;;;;5093752;28;20130;-83
2021/05/21 11:06:24;;;;;;;0.90;0.30;;;11.80;75.00;;;;;;5094754;28;20020;-79
2021/05/21 11:08:49;;;;;;;5.15;1.10;;;11.80;74.30;;;;;;5105063;28;20023;-88
2021/05/21 11:11:15;;;;;;;1.27;0.47;;;11.80;73.50;;;;;;5104665;28;20070;-87
2021/05/21 11:14:04;;;;;;;2.58;0.50;;;11.90;73.40;;;;;;5098960;28;20053;-87
2021/05/21 11:16:33;;;;;;;1.15;0.40;;;12.00;71.90;;;;;;5089533;28;20459;-82
2021/05/21 11:19:18;;;;;;;0.60;0.60;;;12.00;68.90;;;;;;5094800;28;20457;-79
2021/05/21 11:21:44;;;;;;;0.68;0.38;;;12.10;68.70;;;;;;5109656;28;20419;-80
2021/05/21 11:24:11;;;;;;;0.85;0.30;;;12.00;66.60;;;;;;5094018;28;20035;-79
2021/05/21 11:26:41;;;;;;;0.57;0.30;;;12.00;68.30;;;;;;5093545;28;20073;-85
2021/05/21 11:29:08;;;;;;;0.95;0.40;;;11.90;68.30;;;;;;5095809;28;20023;-84
2021/05/21 11:31:39;;;;;;;1.10;0.20;;;11.90;69.80;;;;;;5094808;28;20028;-83
2021/05/21 11:34:09;;;;;;;2.05;0.65;;;11.90;70.30;;;;;;5093289;28;20061;-85
2021/05/21 11:36:35;;;;;;;0.70;0.50;;;11.80;69.50;;;;;;5094328;28;20533;-79
2021/05/21 11:39:03;;;;;;;3.15;0.80;;;11.80;68.60;;;;;;5098328;28;20048;-90
2021/05/21 11:41:31;;;;;;;1.15;0.50;;;11.80;69.10;;;;;;5097092;28;20028;-80
2021/05/21 11:44:06;;;;;;;0.40;0.40;;;11.80;67.30;;;;;;5094270;28;20028;-79
2021/05/21 11:46:39;;;;;;;1.58;0.52;;;11.80;67.50;;;;;;5094084;28;20222;-80
2021/05/21 11:49:18;;;;;;;3.40;0.85;;;11.80;68.40;;;;;;5094175;28;20087;-77
2021/05/21 11:51:44;;;;;;;2.10;0.98;;;11.90;67.10;;;;;;5095368;28;20027;-86
2021/05/21 11:54:10;;;;;;;0.70;0.47;;;11.90;68.40;;;;;;5094685;28;20032;-80
2021/05/21 11:56:38;;;;;;;5.65;0.70;;;11.90;68.50;;;;;;5097182;28;20032;-81
2021/05/21 11:59:08;;;;;;;1.10;0.57;;;11.80;69.30;;;;;;5095487;28;20477;-80
2021/05/21 12:01:36;;;;;;;1.65;0.68;;;11.90;70.10;;;;;;5100008;28;20028;-78
2021/05/21 12:04:06;;;;;;;3.30;0.60;;;11.90;70.70;;;;;;5095405;28;20103;-82
2021/05/21 12:06:33;;;;;;;0.95;0.35;;;11.70;69.70;;;;;;5094710;28;20450;-81
2021/05/21 12:08:59;;;;;;;0.93;0.77;;;11.80;70.10;;;;;;5096048;28;20031;-78
2021/05/21 12:11:26;;;;;;;1.85;0.65;;;11.70;70.70;;;;;;5104796;28;20020;-78
2021/05/21 12:13:52;;;;;;;2.45;0.60;;;11.60;69.60;;;;;;5094201;28;20026;-80
2021/05/21 12:16:20;;;;;;;3.72;0.55;;;11.40;70.50;;;;;;5094501;28;20101;-77
2021/05/21 12:18:46;;;;;;;0.80;0.40;;;11.30;71.10;;;;;;5094617;28;20354;-78
2021/05/21 12:21:22;;;;;;;4.47;0.60;;;11.10;71.20;;;;;;5095602;28;20020;-77
2021/05/21 12:23:51;;;;;;;1.15;0.70;;;11.00;72.70;;;;;;5097504;28;20020;-80
2021/05/21 12:26:19;;;;;;;1.55;0.52;;;10.90;72.90;;;;;;5102600;28;20046;-82
2021/05/21 12:28:45;;;;;;;0.32;0.30;;;10.80;73.20;;;;;;5097639;28;20020;-82
2021/05/21 12:31:11;;;;;;;1.92;0.68;;;10.80;73.50;;;;;;5095456;28;20027;-80
2021/05/21 12:33:41;;;;;;;3.50;0.80;;;10.70;73.00;;;;;;5095513;28;21099;-86
2021/05/21 12:36:08;;;;;;;1.25;0.50;;;10.60;73.90;;;;;;5092398;28;20063;-82
2021/05/21 12:38:35;;;;;;;1.48;0.63;;;10.60;73.00;;;;;;5093223;28;20039;-79
2021/05/21 12:41:01;;;;;;;2.85;0.50;;;10.50;74.60;;;;;;5091797;28;20036;-77
2021/05/21 12:43:31;;;;;;;5.68;0.60;;;10.50;75.20;;;;;;5093072;28;20024;-78
2021/05/21 12:46:07;;;;;;;3.92;0.90;;;10.50;75.90;;;;;;5092891;28;20043;-78
2021/05/21 12:48:45;;;;;;;1.80;0.70;;;10.50;76.90;;;;;;5092990;28;20038;-82
2021/05/21 12:51:25;;;;;;;2.17;0.75;;;10.50;76.20;;;;;;5093124;28;20019;-79